createdAt,value
2017-03-26T00:00:34.859Z,58.1
2017-03-26T00:01:36.681Z,58.2
2017-03-26T00:02:38.488Z,58.1
2017-03-26T00:03:40.317Z,58.1
2017-03-26T00:04:42.142Z,58.2
2017-03-26T00:05:44.301Z,58.1
2017-03-26T00:06:46.123Z,58.1
2017-03-26T00:07:47.923Z,58.2
2017-03-26T00:08:49.736Z,58.2
2017-03-26T00:09:51.552Z,58.3
2017-03-26T00:10:53.371Z,58.4
2017-03-26T00:11:55.172Z,58.3
2017-03-26T00:12:57.665Z,58.5
2017-03-26T00:13:59.489Z,58.4
2017-03-26T00:15:01.643Z,58.5
2017-03-26T00:16:03.450Z,58.5
2017-03-26T00:17:05.603Z,58.5
2017-03-26T00:18:07.413Z,58.6
2017-03-26T00:19:09.239Z,58.6
2017-03-26T00:20:11.065Z,58.6
2017-03-26T00:21:13.220Z,58.6
2017-03-26T00:22:15.710Z,58.5
2017-03-26T00:23:17.520Z,58.5
2017-03-26T00:24:19.679Z,58.5
2017-03-26T00:25:21.491Z,58.5
2017-03-26T00:26:23.299Z,58.6
2017-03-26T00:27:25.114Z,58.6
2017-03-26T00:28:26.919Z,58.7
2017-03-26T00:29:28.742Z,58.6
2017-03-26T00:30:30.549Z,58.7
2017-03-26T00:31:32.374Z,58.7
2017-03-26T00:32:34.190Z,58.6
2017-03-26T00:33:36.012Z,58.7
2017-03-26T00:34:37.869Z,58.7
2017-03-26T00:35:39.663Z,58.7
2017-03-26T00:36:41.839Z,58.6
2017-03-26T00:37:43.643Z,58.7
2017-03-26T00:38:45.815Z,58.8
2017-03-26T00:39:47.620Z,58.8
2017-03-26T00:40:49.426Z,58.8
2017-03-26T00:41:51.241Z,58.7
2017-03-26T00:42:53.042Z,58.7
2017-03-26T00:43:55.565Z,58.8
2017-03-26T00:44:57.706Z,58.8
2017-03-26T00:45:59.528Z,58.8
2017-03-26T00:47:01.400Z,58.8
2017-03-26T00:48:03.565Z,58.9
2017-03-26T00:49:05.705Z,58.9
2017-03-26T00:50:07.524Z,58.9
2017-03-26T00:51:09.324Z,58.9
2017-03-26T00:52:11.150Z,59
2017-03-26T00:53:13.296Z,59
2017-03-26T00:54:15.790Z,59
2017-03-26T00:55:17.940Z,58.9
2017-03-26T00:56:19.766Z,58.9
2017-03-26T00:57:21.911Z,58.9
2017-03-26T00:58:23.729Z,58.8
2017-03-26T00:59:26.218Z,58.8
2017-03-26T01:00:28.035Z,58.8
2017-03-26T01:01:29.850Z,58.9
2017-03-26T01:02:32.006Z,58.9
2017-03-26T01:03:34.158Z,59
2017-03-26T01:04:36.311Z,59
2017-03-26T01:05:38.141Z,59
2017-03-26T01:06:39.951Z,59
2017-03-26T01:07:42.091Z,59.1
2017-03-26T01:08:43.906Z,59.1
2017-03-26T01:09:46.072Z,59.1
2017-03-26T01:10:47.876Z,59.1
2017-03-26T01:11:49.690Z,59.1
2017-03-26T01:12:51.865Z,59.1
2017-03-26T01:13:53.715Z,59.1
2017-03-26T01:14:55.860Z,59.2
2017-03-26T01:15:57.673Z,59.2
2017-03-26T01:16:59.498Z,59.2
2017-03-26T01:18:01.652Z,59.2
2017-03-26T01:19:03.466Z,59.3
2017-03-26T01:20:05.651Z,59.3
2017-03-26T01:21:07.457Z,59.3
2017-03-26T01:22:09.270Z,59.3
2017-03-26T01:23:11.419Z,59.3
2017-03-26T01:24:13.217Z,59.3
2017-03-26T01:25:15.042Z,59.3
2017-03-26T01:26:16.843Z,59.3
2017-03-26T01:27:18.662Z,59.3
2017-03-26T01:28:20.463Z,59.3
2017-03-26T01:29:22.295Z,59.3
2017-03-26T01:30:24.437Z,59.3
2017-03-26T01:31:26.262Z,59.4
2017-03-26T01:32:28.070Z,59.3
2017-03-26T01:33:29.883Z,59.4
2017-03-26T01:34:32.038Z,59.5
2017-03-26T01:35:33.840Z,59.5
2017-03-26T01:36:35.646Z,59.5
2017-03-26T01:37:37.457Z,59.5
2017-03-26T01:38:39.295Z,59.5
2017-03-26T01:39:41.449Z,59.5
2017-03-26T01:40:43.280Z,59.5
2017-03-26T01:41:45.433Z,59.6
2017-03-26T01:42:47.244Z,59.5
2017-03-26T01:43:49.458Z,59.5
2017-03-26T01:44:51.277Z,59.5
2017-03-26T01:45:53.423Z,59.4
2017-03-26T01:46:55.587Z,59.4
2017-03-26T01:47:57.744Z,59.5
2017-03-26T01:48:59.955Z,59.5
2017-03-26T01:50:01.758Z,59.5
2017-03-26T01:51:03.578Z,59.6
2017-03-26T01:52:05.386Z,59.6
2017-03-26T01:53:07.535Z,59.6
2017-03-26T01:54:09.372Z,59.6
2017-03-26T01:55:11.528Z,59.6
2017-03-26T01:56:13.674Z,59.6
2017-03-26T01:57:15.506Z,59.6
2017-03-26T01:58:17.325Z,59.6
2017-03-26T01:59:19.489Z,59.6
2017-03-26T02:00:21.300Z,59.6
2017-03-26T02:01:23.109Z,59.6
2017-03-26T02:02:24.941Z,59.6
2017-03-26T02:03:26.766Z,59.7
2017-03-26T02:04:28.935Z,59.7
2017-03-26T02:05:30.730Z,59.6
2017-03-26T02:06:32.538Z,59.7
2017-03-26T02:07:34.347Z,59.6
2017-03-26T02:08:36.506Z,59.6
2017-03-26T02:09:38.654Z,59.6
2017-03-26T02:10:40.479Z,59.7
2017-03-26T02:11:42.289Z,59.7
2017-03-26T02:12:44.792Z,59.8
2017-03-26T02:13:46.600Z,59.8
2017-03-26T02:14:48.758Z,59.8
2017-03-26T02:15:50.567Z,59.8
2017-03-26T02:16:52.371Z,59.9
2017-03-26T02:17:54.181Z,59.9
2017-03-26T02:18:55.995Z,59.9
2017-03-26T02:19:57.821Z,60
2017-03-26T02:20:59.625Z,60
2017-03-26T02:22:01.445Z,60
2017-03-26T02:23:03.254Z,60
2017-03-26T02:24:05.426Z,60
2017-03-26T02:25:07.249Z,60
2017-03-26T02:26:09.400Z,60
2017-03-26T02:27:11.208Z,60
2017-03-26T02:28:13.359Z,60
2017-03-26T02:29:15.179Z,60
2017-03-26T02:30:17.669Z,60
2017-03-26T02:31:19.468Z,60
2017-03-26T02:32:21.282Z,60
2017-03-26T02:33:23.094Z,60
2017-03-26T02:34:24.917Z,60
2017-03-26T02:35:26.723Z,60
2017-03-26T02:36:28.908Z,60
2017-03-26T02:37:30.717Z,60
2017-03-26T02:38:32.531Z,60
2017-03-26T02:39:35.048Z,60
2017-03-26T02:40:37.196Z,60
2017-03-26T02:41:39.016Z,60.1
2017-03-26T02:42:40.821Z,60.1
2017-03-26T02:43:42.644Z,60.1
2017-03-26T02:44:44.847Z,60.1
2017-03-26T02:45:46.655Z,60.1
2017-03-26T02:46:48.465Z,60.1
2017-03-26T02:47:50.292Z,60.1
2017-03-26T02:48:52.117Z,60.1
2017-03-26T02:49:54.274Z,60.2
2017-03-26T02:50:56.423Z,60.2
2017-03-26T02:51:58.238Z,60
2017-03-26T02:53:00.054Z,60
2017-03-26T02:54:01.864Z,60
2017-03-26T02:55:04.357Z,60.1
2017-03-26T02:56:06.173Z,60
2017-03-26T02:57:07.982Z,60
2017-03-26T02:58:10.151Z,60.1
2017-03-26T02:59:12.002Z,60.1
2017-03-26T03:00:13.818Z,60.1
2017-03-26T03:01:15.648Z,60.3
2017-03-26T03:02:17.465Z,60.1
2017-03-26T03:03:19.623Z,60.2
2017-03-26T03:04:21.432Z,60.2
2017-03-26T03:05:23.250Z,60.3
2017-03-26T03:06:25.067Z,60.4
2017-03-26T03:07:26.869Z,60.3
2017-03-26T03:08:29.011Z,60.2
2017-03-26T03:09:31.866Z,60.2
2017-03-26T03:10:33.708Z,60.2
2017-03-26T03:11:35.529Z,60.2
2017-03-26T03:12:37.667Z,60.2
2017-03-26T03:13:39.495Z,60.3
2017-03-26T03:14:41.312Z,60.3
2017-03-26T03:15:43.120Z,60.2
2017-03-26T03:16:44.938Z,60.2
2017-03-26T03:17:46.748Z,60.3
2017-03-26T03:18:48.901Z,60.2
2017-03-26T03:19:50.708Z,60.3
2017-03-26T03:20:52.541Z,60.4
2017-03-26T03:21:54.345Z,60.3
2017-03-26T03:22:56.168Z,60.3
2017-03-26T03:23:58.983Z,60.3
2017-03-26T03:25:01.141Z,60.3
2017-03-26T03:26:02.953Z,60.4
2017-03-26T03:27:05.438Z,60.4
2017-03-26T03:28:07.606Z,60.4
2017-03-26T03:29:09.409Z,60.4
2017-03-26T03:30:11.556Z,60.4
2017-03-26T03:31:13.370Z,60.3
2017-03-26T03:32:15.186Z,60.3
2017-03-26T03:33:17.002Z,60.2
2017-03-26T03:34:19.162Z,60.3
2017-03-26T03:35:21.317Z,60.3
2017-03-26T03:36:23.117Z,60.3
2017-03-26T03:37:24.936Z,60.3
2017-03-26T03:38:27.074Z,60.4
2017-03-26T03:39:29.293Z,60.5
2017-03-26T03:40:31.111Z,60.5
2017-03-26T03:41:32.917Z,60.4
2017-03-26T03:42:35.114Z,60.5
2017-03-26T03:43:36.944Z,60.5
2017-03-26T03:44:39.453Z,60.5
2017-03-26T03:45:41.257Z,60.5
2017-03-26T03:46:43.073Z,60.7
2017-03-26T03:47:44.879Z,60.7
2017-03-26T03:48:47.027Z,60.7
2017-03-26T03:49:49.532Z,60.7
2017-03-26T03:50:52.022Z,60.6
2017-03-26T03:51:54.163Z,60.7
2017-03-26T03:52:55.989Z,60.7
2017-03-26T03:53:57.802Z,60.7
2017-03-26T03:54:59.634Z,60.8
2017-03-26T03:56:02.140Z,60.8
2017-03-26T03:57:04.301Z,60.8
2017-03-26T03:58:06.113Z,60.8
2017-03-26T03:59:07.921Z,60.8
2017-03-26T04:00:10.076Z,60.8
2017-03-26T04:01:12.219Z,60.8
2017-03-26T04:02:14.039Z,60.8
2017-03-26T04:03:15.850Z,60.6
2017-03-26T04:04:17.670Z,60.7
2017-03-26T04:05:19.808Z,60.7
2017-03-26T04:06:21.635Z,60.7
2017-03-26T04:07:23.453Z,60.8
2017-03-26T04:08:25.265Z,60.8
2017-03-26T04:09:27.780Z,60.9
2017-03-26T04:10:29.919Z,60.9
2017-03-26T04:11:31.735Z,60.9
2017-03-26T04:12:33.537Z,60.9
2017-03-26T04:13:35.712Z,60.9
2017-03-26T04:14:37.517Z,60.9
2017-03-26T04:15:39.669Z,60.8
2017-03-26T04:16:41.825Z,60.8
2017-03-26T04:17:43.639Z,60.8
2017-03-26T04:18:45.802Z,60.9
2017-03-26T04:19:47.943Z,60.9
2017-03-26T04:20:49.750Z,60.9
2017-03-26T04:21:51.577Z,60.8
2017-03-26T04:22:53.727Z,60.8
2017-03-26T04:23:55.895Z,60.9
2017-03-26T04:24:57.710Z,61
2017-03-26T04:25:59.874Z,60.9
2017-03-26T04:27:01.687Z,60.9
2017-03-26T04:28:03.503Z,61
2017-03-26T04:29:05.315Z,61
2017-03-26T04:30:07.122Z,61
2017-03-26T04:31:08.944Z,61
2017-03-26T04:32:10.792Z,61.1
2017-03-26T04:33:12.676Z,61.1
2017-03-26T04:34:14.923Z,61.1
2017-03-26T04:35:16.812Z,61.1
2017-03-26T04:36:18.622Z,61
2017-03-26T04:37:20.923Z,61
2017-03-26T04:38:22.754Z,61
2017-03-26T04:39:24.968Z,61
2017-03-26T04:40:26.804Z,61.1
2017-03-26T04:41:28.654Z,61
2017-03-26T04:42:30.501Z,61.1
2017-03-26T04:43:32.393Z,61.1
2017-03-26T04:44:34.232Z,61.1
2017-03-26T04:45:36.050Z,61.1
2017-03-26T04:46:37.920Z,61.1
2017-03-26T04:47:39.842Z,61.1
2017-03-26T04:48:41.726Z,61.1
2017-03-26T04:49:43.929Z,61.1
2017-03-26T04:50:45.763Z,61.1
2017-03-26T04:51:47.586Z,61.1
2017-03-26T04:52:49.776Z,61.1
2017-03-26T04:53:51.622Z,61.1
2017-03-26T04:54:53.458Z,61.1
2017-03-26T04:55:55.309Z,61.1
2017-03-26T04:56:57.150Z,61.2
2017-03-26T04:57:59.165Z,61.1
2017-03-26T04:59:01.380Z,61.2
2017-03-26T05:00:03.552Z,61.1
2017-03-26T05:01:05.405Z,61.1
2017-03-26T05:02:07.254Z,61.1
2017-03-26T05:03:09.451Z,61.1
2017-03-26T05:04:11.954Z,61.2
2017-03-26T05:05:14.269Z,61.2
2017-03-26T05:06:16.082Z,61.2
2017-03-26T05:07:17.992Z,61.1
2017-03-26T05:08:19.870Z,61.1
2017-03-26T05:09:21.732Z,61.2
2017-03-26T05:10:23.945Z,61.2
2017-03-26T05:11:25.785Z,61.2
2017-03-26T05:12:27.612Z,61.2
2017-03-26T05:13:29.421Z,61.1
2017-03-26T05:14:31.322Z,61.2
2017-03-26T05:15:33.270Z,61.2
2017-03-26T05:16:35.438Z,61.3
2017-03-26T05:17:37.253Z,61.4
2017-03-26T05:18:39.489Z,61.4
2017-03-26T05:19:41.307Z,61.3
2017-03-26T05:20:43.127Z,61.4
2017-03-26T05:21:44.961Z,61.3
2017-03-26T05:22:47.234Z,61.4
2017-03-26T05:23:49.396Z,61.3
2017-03-26T05:24:51.924Z,61.3
2017-03-26T05:25:54.130Z,61.4
2017-03-26T05:26:55.937Z,61.4
2017-03-26T05:27:57.779Z,61.4
2017-03-26T05:29:00.665Z,61.4
2017-03-26T05:30:02.843Z,61.4
2017-03-26T05:31:04.650Z,61.4
2017-03-26T05:32:06.580Z,61.3
2017-03-26T05:33:08.481Z,61.3
2017-03-26T05:34:10.316Z,61.4
2017-03-26T05:35:12.253Z,61.5
2017-03-26T05:36:14.058Z,61.5
2017-03-26T05:37:15.892Z,61.5
2017-03-26T05:38:17.852Z,61.5
2017-03-26T05:39:19.679Z,61.5
2017-03-26T05:40:21.913Z,61.5
2017-03-26T05:41:23.732Z,61.4
2017-03-26T05:42:25.651Z,61.2
2017-03-26T05:43:27.592Z,61.2
2017-03-26T05:44:29.431Z,61.2
2017-03-26T05:45:31.264Z,61.2
2017-03-26T05:46:33.091Z,61.3
2017-03-26T05:47:34.922Z,61.5
2017-03-26T05:48:36.827Z,61.5
2017-03-26T05:49:38.651Z,61.5
2017-03-26T05:50:40.486Z,61.5
2017-03-26T05:51:42.986Z,61.4
2017-03-26T05:52:44.998Z,61.6
2017-03-26T05:53:47.143Z,61.5
2017-03-26T05:54:49.327Z,61.5
2017-03-26T05:55:51.189Z,61.5
2017-03-26T05:56:53.099Z,61.5
2017-03-26T05:57:55.282Z,61.4
2017-03-26T05:58:57.459Z,61.5
2017-03-26T05:59:59.298Z,61.4
2017-03-26T06:01:01.112Z,61.4
2017-03-26T06:02:02.930Z,61.4
2017-03-26T06:03:04.773Z,61.4
2017-03-26T06:04:06.601Z,61.5
2017-03-26T06:05:08.783Z,61.4
2017-03-26T06:06:10.648Z,61.3
2017-03-26T06:07:12.832Z,61.3
2017-03-26T06:08:14.662Z,61.4
2017-03-26T06:09:16.594Z,61.5
2017-03-26T06:10:18.444Z,61.5
2017-03-26T06:11:20.262Z,61.6
2017-03-26T06:12:22.117Z,61.5
2017-03-26T06:13:24.337Z,61.4
2017-03-26T06:14:26.274Z,61.7
2017-03-26T06:15:28.425Z,61.6
2017-03-26T06:16:30.247Z,61.7
2017-03-26T06:17:32.053Z,61.8
2017-03-26T06:18:33.911Z,61.7
2017-03-26T06:19:35.725Z,61.8
2017-03-26T06:20:37.583Z,61.7
2017-03-26T06:21:39.393Z,61.8
2017-03-26T06:22:41.203Z,61.7
2017-03-26T06:23:43.026Z,61.7
2017-03-26T06:24:44.834Z,61.8
2017-03-26T06:25:46.981Z,61.9
2017-03-26T06:26:48.788Z,61.9
2017-03-26T06:27:50.600Z,61.9
2017-03-26T06:28:52.751Z,61.8
2017-03-26T06:29:54.917Z,61.8
2017-03-26T06:30:56.712Z,61.8
2017-03-26T06:31:58.539Z,61.8
2017-03-26T06:33:00.339Z,61.8
2017-03-26T06:34:02.160Z,61.9
2017-03-26T06:35:03.974Z,61.9
2017-03-26T06:36:06.119Z,61.9
2017-03-26T06:37:07.935Z,61.9
2017-03-26T06:38:09.750Z,61.8
2017-03-26T06:39:11.560Z,61.9
2017-03-26T06:40:13.733Z,61.8
2017-03-26T06:41:15.899Z,61.8
2017-03-26T06:42:17.711Z,61.8
2017-03-26T06:43:19.539Z,61.8
2017-03-26T06:44:21.352Z,61.8
2017-03-26T06:45:23.172Z,61.8
2017-03-26T06:46:24.977Z,61.8
2017-03-26T06:47:26.791Z,61.8
2017-03-26T06:48:28.930Z,61.8
2017-03-26T06:49:31.435Z,61.7
2017-03-26T06:50:33.252Z,61.7
2017-03-26T06:51:35.404Z,61.8
2017-03-26T06:52:37.936Z,61.8
2017-03-26T06:53:39.743Z,61.8
2017-03-26T06:54:41.567Z,61.8
2017-03-26T06:55:43.378Z,61.8
2017-03-26T06:56:45.194Z,61.8
2017-03-26T06:57:47.344Z,61.8
2017-03-26T06:58:49.844Z,61.9
2017-03-26T06:59:51.668Z,61.8
2017-03-26T07:00:54.151Z,61.8
2017-03-26T07:01:55.968Z,61.8
2017-03-26T07:02:58.124Z,61.8
2017-03-26T07:03:59.939Z,61.8
2017-03-26T07:05:01.746Z,61.8
2017-03-26T07:06:03.552Z,61.8
2017-03-26T07:07:05.376Z,61.8
2017-03-26T07:08:07.182Z,61.7
2017-03-26T07:09:09.331Z,61.8
2017-03-26T07:10:11.154Z,61.7
2017-03-26T07:11:12.980Z,61.7
2017-03-26T07:12:14.788Z,61.6
2017-03-26T07:13:16.948Z,61.6
2017-03-26T07:14:19.106Z,61.6
2017-03-26T07:15:21.287Z,61.5
2017-03-26T07:16:23.108Z,61.6
2017-03-26T07:17:24.916Z,61.6
2017-03-26T07:18:26.719Z,61.4
2017-03-26T07:19:28.861Z,61.4
2017-03-26T07:20:31.370Z,61.3
2017-03-26T07:21:33.184Z,61.3
2017-03-26T07:22:34.999Z,61.1
2017-03-26T07:23:36.818Z,61.1
2017-03-26T07:24:38.979Z,61
2017-03-26T07:25:40.778Z,61.1
2017-03-26T07:26:42.936Z,61.1
2017-03-26T07:27:44.742Z,61.1
2017-03-26T07:28:46.913Z,61.1
2017-03-26T07:29:48.720Z,60.1
2017-03-26T07:30:50.533Z,60.1
2017-03-26T07:31:52.344Z,60
2017-03-26T07:32:54.157Z,60
2017-03-26T07:33:55.976Z,60
2017-03-26T07:34:57.791Z,60
2017-03-26T07:35:59.937Z,60
2017-03-26T07:37:01.769Z,60
2017-03-26T07:38:03.593Z,60
2017-03-26T07:39:05.416Z,60
2017-03-26T07:40:07.219Z,60
2017-03-26T07:41:09.039Z,60
2017-03-26T07:42:10.859Z,60
2017-03-26T07:43:13.011Z,60
2017-03-26T07:44:15.222Z,60
2017-03-26T07:45:17.039Z,60
2017-03-26T07:46:18.853Z,60.1
2017-03-26T07:47:20.668Z,60
2017-03-26T07:48:22.480Z,60
2017-03-26T07:49:24.306Z,60
2017-03-26T07:50:26.119Z,60
2017-03-26T07:51:27.938Z,60
2017-03-26T07:52:30.088Z,60
2017-03-26T07:53:31.924Z,60
2017-03-26T07:54:33.744Z,60
2017-03-26T07:55:35.896Z,60.1
2017-03-26T07:56:38.415Z,60
2017-03-26T07:57:40.226Z,60
2017-03-26T07:58:42.389Z,60
2017-03-26T07:59:44.207Z,59.9
2017-03-26T08:00:46.012Z,59.9
2017-03-26T08:01:47.844Z,59.9
2017-03-26T08:02:49.654Z,59.9
2017-03-26T08:03:51.816Z,59.8
2017-03-26T08:04:53.615Z,59.8
2017-03-26T08:05:55.450Z,59.8
2017-03-26T08:06:57.260Z,59.7
2017-03-26T08:07:59.099Z,59.8
2017-03-26T08:09:00.915Z,59.7
2017-03-26T08:10:03.416Z,59.6
2017-03-26T08:11:05.231Z,59.7
2017-03-26T08:12:07.039Z,59.6
2017-03-26T08:13:08.858Z,59.7
2017-03-26T08:14:10.664Z,59.6
2017-03-26T08:15:12.495Z,59.5
2017-03-26T08:16:14.304Z,59.6
2017-03-26T08:17:16.117Z,59.5
2017-03-26T08:18:18.611Z,59.6
2017-03-26T08:19:20.783Z,59.6
2017-03-26T08:20:22.942Z,59.6
2017-03-26T08:21:24.770Z,59.6
2017-03-26T08:22:26.591Z,59.6
2017-03-26T08:23:28.418Z,59.7
2017-03-26T08:24:30.245Z,59.6
2017-03-26T08:25:32.071Z,59.7
2017-03-26T08:26:33.873Z,59.8
2017-03-26T08:27:35.702Z,60.1
2017-03-26T08:28:37.856Z,60.5
2017-03-26T08:29:39.675Z,61
2017-03-26T08:30:41.503Z,61.2
2017-03-26T08:31:43.311Z,61.6
2017-03-26T08:32:45.133Z,61.9
2017-03-26T08:33:46.959Z,62.2
2017-03-26T08:34:48.787Z,62.4
2017-03-26T08:35:50.603Z,62.7
2017-03-26T08:36:52.428Z,62.5
2017-03-26T08:37:54.244Z,62.6
2017-03-26T08:38:56.420Z,62.8
2017-03-26T08:39:58.248Z,62.9
2017-03-26T08:41:00.079Z,62.9
2017-03-26T08:42:01.897Z,62.9
2017-03-26T08:43:03.724Z,62.9
2017-03-26T08:44:05.899Z,62.9
2017-03-26T08:45:07.719Z,63
2017-03-26T08:46:09.540Z,63.1
2017-03-26T08:47:11.403Z,63
2017-03-26T08:48:13.250Z,62.8
2017-03-26T08:49:15.070Z,62.7
2017-03-26T08:50:17.248Z,62.5
2017-03-26T08:51:19.078Z,62.3
2017-03-26T08:52:21.282Z,62.3
2017-03-26T08:53:23.123Z,62.1
2017-03-26T08:54:24.947Z,61.9
2017-03-26T08:56:37.632Z,61.9
2017-03-26T08:57:39.506Z,61.8
2017-03-26T08:58:41.738Z,61.4
2017-03-26T08:59:44.149Z,61.1
2017-03-26T09:00:46.050Z,61.1
2017-03-26T09:01:47.942Z,61
2017-03-26T09:02:49.896Z,60.8
2017-03-26T09:03:52.215Z,60.5
2017-03-26T09:04:54.177Z,60.3
2017-03-26T09:05:56.459Z,60.3
2017-03-26T09:06:58.713Z,60.2
2017-03-26T09:08:00.629Z,60.1
2017-03-26T09:09:02.578Z,60
2017-03-26T09:10:04.559Z,60
2017-03-26T09:11:06.525Z,60
2017-03-26T09:12:08.457Z,59.6
2017-03-26T09:13:10.491Z,59.5
2017-03-26T09:14:12.455Z,59.3
2017-03-26T09:15:14.378Z,59.2
2017-03-26T09:16:16.326Z,59.2
2017-03-26T09:17:18.277Z,59.2
2017-03-26T09:18:20.533Z,59.2
2017-03-26T09:19:22.498Z,59.2
2017-03-26T09:20:24.445Z,58.8
2017-03-26T09:21:26.418Z,58.7
2017-03-26T09:22:28.297Z,58.5
2017-03-26T09:23:30.190Z,58.4
2017-03-26T09:24:32.084Z,58.2
2017-03-26T09:25:34.208Z,58.1
2017-03-26T09:26:36.097Z,58
2017-03-26T09:27:38.009Z,57.9
2017-03-26T09:28:40.245Z,57.7
2017-03-26T09:29:42.161Z,57.6
2017-03-26T09:30:44.387Z,57.5
2017-03-26T09:31:46.273Z,57.4
2017-03-26T09:32:48.144Z,57.2
2017-03-26T09:33:50.542Z,57
2017-03-26T09:34:52.760Z,56.8
2017-03-26T09:35:54.700Z,56.6
2017-03-26T09:36:56.633Z,56.5
2017-03-26T09:37:58.737Z,56.4
2017-03-26T09:39:00.961Z,56.2
2017-03-26T09:40:03.372Z,56.1
2017-03-26T09:41:05.263Z,55.8
2017-03-26T09:42:07.153Z,55.8
2017-03-26T09:43:09.052Z,55.7
2017-03-26T09:44:11.332Z,55.5
2017-03-26T09:45:13.236Z,55.5
2017-03-26T09:46:15.291Z,55.5
2017-03-26T09:47:17.185Z,55.4
2017-03-26T09:48:19.305Z,55.2
2017-03-26T09:49:21.957Z,55.3
2017-03-26T09:50:24.190Z,55
2017-03-26T09:51:26.485Z,55.1
2017-03-26T09:52:28.382Z,55
2017-03-26T09:53:30.612Z,54.7
2017-03-26T09:54:32.710Z,54.5
2017-03-26T09:55:34.610Z,54.6
2017-03-26T09:56:36.511Z,54.7
2017-03-26T09:57:38.672Z,54.7
2017-03-26T09:58:40.693Z,54.7
2017-03-26T09:59:42.578Z,54.7
2017-03-26T10:00:44.899Z,54.7
2017-03-26T10:01:46.782Z,54.7
2017-03-26T10:02:48.686Z,54.7
2017-03-26T10:03:50.857Z,54.7
2017-03-26T10:04:52.756Z,54.8
2017-03-26T10:05:54.681Z,54.7
2017-03-26T10:06:56.892Z,54.5
2017-03-26T10:07:58.788Z,54.2
2017-03-26T10:09:01.052Z,54.2
2017-03-26T10:10:04.293Z,54.1
2017-03-26T10:11:06.290Z,53.9
2017-03-26T10:12:08.884Z,53.8
2017-03-26T10:13:10.778Z,53.6
2017-03-26T10:14:12.683Z,53.5
2017-03-26T10:15:14.945Z,53.4
2017-03-26T10:16:16.826Z,53.4
2017-03-26T10:17:18.779Z,53.2
2017-03-26T10:18:20.665Z,52.9
2017-03-26T10:19:22.890Z,52.9
2017-03-26T10:20:25.324Z,52.8
2017-03-26T10:21:27.201Z,52.8
2017-03-26T10:22:29.086Z,52.7
2017-03-26T10:23:30.976Z,52.5
2017-03-26T10:24:32.863Z,52.5
2017-03-26T10:25:34.745Z,52.5
2017-03-26T10:26:36.801Z,52.4
2017-03-26T10:27:38.779Z,52.4
2017-03-26T10:28:41.015Z,52.4
2017-03-26T10:29:43.254Z,52.3
2017-03-26T10:30:45.223Z,52.3
2017-03-26T10:31:47.122Z,52
2017-03-26T10:32:49.009Z,51.8
2017-03-26T10:33:50.901Z,51.8
2017-03-26T10:34:52.803Z,51.5
2017-03-26T10:35:55.365Z,50.9
2017-03-26T10:36:57.371Z,50.7
2017-03-26T10:37:59.249Z,50.8
2017-03-26T10:39:01.803Z,50.9
2017-03-26T10:40:04.038Z,51.1
2017-03-26T10:41:06.238Z,50.8
2017-03-26T10:42:08.118Z,50.6
2017-03-26T10:43:10.337Z,50.4
2017-03-26T10:44:12.222Z,50.4
2017-03-26T10:45:14.788Z,50.8
2017-03-26T10:46:16.755Z,50.9
2017-03-26T10:47:18.630Z,51
2017-03-26T10:48:20.501Z,50.8
2017-03-26T10:49:22.745Z,50.9
2017-03-26T10:50:25.045Z,50.8
2017-03-26T10:51:26.927Z,50.8
2017-03-26T10:52:28.992Z,50.6
2017-03-26T10:53:30.866Z,50.7
2017-03-26T10:54:33.072Z,50.8
2017-03-26T10:55:35.089Z,50.8
2017-03-26T10:56:36.965Z,50.5
2017-03-26T10:57:38.841Z,50.5
2017-03-26T10:58:40.980Z,50.7
2017-03-26T10:59:42.868Z,50.8
2017-03-26T11:00:44.764Z,50.8
2017-03-26T11:01:46.966Z,50.9
2017-03-26T11:02:49.184Z,51
2017-03-26T11:03:51.065Z,51
2017-03-26T11:04:53.042Z,51
2017-03-26T11:05:54.923Z,50.9
2017-03-26T11:06:56.818Z,50.7
2017-03-26T11:07:59.126Z,50.6
2017-03-26T11:09:01.692Z,50.8
2017-03-26T11:10:03.571Z,50.7
2017-03-26T11:11:05.559Z,50.6
2017-03-26T11:12:07.791Z,50.5
2017-03-26T11:13:09.696Z,50.3
2017-03-26T11:14:11.922Z,50.2
2017-03-26T11:15:13.789Z,50
2017-03-26T11:16:15.682Z,49.8
2017-03-26T11:17:17.625Z,49.6
2017-03-26T11:18:19.500Z,49.2
2017-03-26T11:19:21.376Z,49.1
2017-03-26T11:20:23.633Z,49
2017-03-26T11:21:25.850Z,48.8
2017-03-26T11:22:27.719Z,48.7
2017-03-26T11:23:30.133Z,48.7
2017-03-26T11:24:32.005Z,48.8
2017-03-26T11:25:33.891Z,48.8
2017-03-26T11:26:35.915Z,48.9
2017-03-26T11:27:38.132Z,48.8
2017-03-26T11:28:40.348Z,48.8
2017-03-26T11:29:42.434Z,48.6
2017-03-26T11:30:44.317Z,48.5
2017-03-26T11:31:46.179Z,48.3
2017-03-26T11:32:48.056Z,48.2
2017-03-26T11:33:49.939Z,48.2
2017-03-26T11:34:51.819Z,48
2017-03-26T11:35:54.030Z,47.7
2017-03-26T11:36:55.894Z,47.7
2017-03-26T11:37:57.979Z,47.6
2017-03-26T11:39:00.206Z,47.8
2017-03-26T11:40:02.066Z,47.8
2017-03-26T11:41:03.940Z,47.7
2017-03-26T11:42:05.819Z,47.7
2017-03-26T11:43:07.819Z,47.6
2017-03-26T11:44:09.685Z,47.5
2017-03-26T11:45:12.047Z,47.5
2017-03-26T11:46:13.912Z,47.3
2017-03-26T11:47:15.787Z,47.3
2017-03-26T11:48:17.674Z,47.1
2017-03-26T11:49:20.223Z,47.1
2017-03-26T11:50:22.167Z,46.9
2017-03-26T11:51:24.061Z,46.8
2017-03-26T11:52:25.938Z,46.7
2017-03-26T11:53:27.811Z,46.5
2017-03-26T11:54:30.381Z,46.5
2017-03-26T11:55:32.259Z,46.4
2017-03-26T11:56:34.136Z,46.3
2017-03-26T11:57:36.350Z,46.4
2017-03-26T11:58:38.589Z,46.4
2017-03-26T11:59:40.475Z,46.6
2017-03-26T12:00:42.713Z,46.5
2017-03-26T12:01:44.583Z,46.4
2017-03-26T12:02:46.462Z,46.1
2017-03-26T12:03:48.354Z,46
2017-03-26T12:04:50.244Z,46
2017-03-26T12:05:52.123Z,46
2017-03-26T12:06:54.326Z,46.1
2017-03-26T12:07:56.197Z,46.2
2017-03-26T12:08:58.064Z,46.1
2017-03-26T12:10:00.286Z,46.2
2017-03-26T12:11:02.161Z,46.1
2017-03-26T12:12:04.046Z,46
2017-03-26T12:13:05.931Z,46
2017-03-26T12:14:08.143Z,45.8
2017-03-26T12:15:10.016Z,45.6
2017-03-26T12:16:11.888Z,45.6
2017-03-26T12:17:14.095Z,45.6
2017-03-26T12:18:15.972Z,45.6
2017-03-26T12:19:18.181Z,45.3
2017-03-26T12:20:20.056Z,45.2
2017-03-26T12:21:21.926Z,45.2
2017-03-26T12:22:23.799Z,45.4
2017-03-26T12:23:25.674Z,45.2
2017-03-26T12:24:28.255Z,45.1
2017-03-26T12:25:30.140Z,45
2017-03-26T12:26:32.070Z,45.1
2017-03-26T12:27:33.938Z,45
2017-03-26T12:28:35.821Z,44.9
2017-03-26T12:29:38.035Z,44.8
2017-03-26T12:30:40.322Z,44.7
2017-03-26T12:31:42.199Z,44.7
2017-03-26T12:32:44.073Z,44.6
2017-03-26T12:33:45.961Z,44.5
2017-03-26T12:34:47.839Z,44.4
2017-03-26T12:35:49.755Z,44.2
2017-03-26T12:36:51.631Z,44
2017-03-26T12:37:53.853Z,44.1
2017-03-26T12:38:56.076Z,44.1
2017-03-26T12:39:57.954Z,44.1
2017-03-26T12:40:59.838Z,44
2017-03-26T12:42:01.713Z,43.9
2017-03-26T12:43:04.297Z,44
2017-03-26T12:44:06.202Z,44
2017-03-26T12:45:08.095Z,44
2017-03-26T12:46:09.973Z,43.9
2017-03-26T12:47:12.197Z,43.8
2017-03-26T12:48:14.067Z,43.7
2017-03-26T12:49:15.950Z,43.7
2017-03-26T12:50:18.513Z,43.7
2017-03-26T12:51:20.387Z,43.6
2017-03-26T12:52:22.258Z,43.7
2017-03-26T12:53:24.136Z,43.7
2017-03-26T12:54:26.701Z,43.7
2017-03-26T12:55:28.578Z,43.6
2017-03-26T12:56:30.471Z,43.6
2017-03-26T12:57:32.383Z,43.6
2017-03-26T12:58:34.261Z,43.6
2017-03-26T12:59:36.136Z,43.4
2017-03-26T13:00:38.011Z,43.4
2017-03-26T13:01:39.896Z,43.5
2017-03-26T13:02:41.782Z,43.4
2017-03-26T13:03:43.672Z,43.4
2017-03-26T13:04:45.557Z,43.4
2017-03-26T13:05:47.438Z,43.2
2017-03-26T13:06:49.313Z,43.2
2017-03-26T13:07:51.531Z,43.2
2017-03-26T13:08:53.425Z,43.3
2017-03-26T13:09:55.984Z,43.3
2017-03-26T13:10:58.549Z,43.2
2017-03-26T13:12:00.428Z,43.1
2017-03-26T13:13:02.668Z,43.1
2017-03-26T13:14:04.538Z,42.9
2017-03-26T13:15:06.423Z,42.8
2017-03-26T13:16:08.294Z,42.9
2017-03-26T13:17:10.174Z,43
2017-03-26T13:18:12.060Z,43.1
2017-03-26T13:19:13.956Z,43.1
2017-03-26T13:20:16.196Z,42.9
2017-03-26T13:21:18.078Z,43
2017-03-26T13:22:19.945Z,43.1
2017-03-26T13:23:22.484Z,43
2017-03-26T13:24:24.361Z,43
2017-03-26T13:25:26.253Z,43
2017-03-26T13:26:28.125Z,43
2017-03-26T13:27:29.995Z,43
2017-03-26T13:28:32.227Z,43
2017-03-26T13:29:34.112Z,43
2017-03-26T13:30:35.978Z,43
2017-03-26T13:31:37.848Z,43
2017-03-26T13:32:39.742Z,43.1
2017-03-26T13:33:41.630Z,43.1
2017-03-26T13:34:43.843Z,43.2
2017-03-26T13:35:45.716Z,43.3
2017-03-26T13:36:47.577Z,43.4
2017-03-26T13:37:49.463Z,43.4
2017-03-26T13:38:51.335Z,43.5
2017-03-26T13:39:53.218Z,43.4
2017-03-26T13:40:55.105Z,43.4
2017-03-26T13:41:57.329Z,43.3
2017-03-26T13:42:59.547Z,43.2
2017-03-26T13:44:01.771Z,43.1
2017-03-26T13:45:03.993Z,43.2
2017-03-26T13:46:05.910Z,43.1
2017-03-26T13:47:07.780Z,43.2
2017-03-26T13:48:09.667Z,43.3
2017-03-26T13:49:12.231Z,43.4
2017-03-26T13:50:14.435Z,43.5
2017-03-26T13:51:16.317Z,43.3
2017-03-26T13:52:18.537Z,43.4
2017-03-26T13:53:20.400Z,43.4